sensor_id;sensor_type;location;lat;lon;timestamp;P1;durP1;ratioP1;P2;durP2;ratioP2
24157;SDS011;12316;50.904;4.200;2023-02-28T00:00:50;8.82;;;6.80;;
24157;SDS011;12316;50.904;4.200;2023-02-28T00:03:15;12.68;;;7.10;;
24157;SDS011;12316;50.904;4.200;2023-02-28T00:05:41;9.50;;;6.82;;
24157;SDS011;12316;50.904;4.200;2023-02-28T00:08:07;12.13;;;7.32;;
24157;SDS011;12316;50.904;4.200;2023-02-28T00:10:33;9.05;;;6.65;;
24157;SDS011;12316;50.904;4.200;2023-02-28T00:13:00;10.68;;;7.18;;
24157;SDS011;12316;50.904;4.200;2023-02-28T00:15:31;11.52;;;7.32;;
24157;SDS011;12316;50.904;4.200;2023-02-28T00:17:57;14.57;;;7.32;;
24157;SDS011;12316;50.904;4.200;2023-02-28T00:20:23;12.98;;;6.93;;
24157;SDS011;12316;50.904;4.200;2023-02-28T00:22:50;12.23;;;7.68;;
24157;SDS011;12316;50.904;4.200;2023-02-28T00:25:18;10.27;;;6.70;;
24157;SDS011;12316;50.904;4.200;2023-02-28T00:27:46;11.43;;;7.32;;
24157;SDS011;12316;50.904;4.200;2023-02-28T00:30:14;10.48;;;7.68;;
24157;SDS011;12316;50.904;4.200;2023-02-28T00:32:41;15.45;;;7.45;;
24157;SDS011;12316;50.904;4.200;2023-02-28T00:35:07;12.20;;;7.43;;
24157;SDS011;12316;50.904;4.200;2023-02-28T00:37:34;10.70;;;7.20;;
24157;SDS011;12316;50.904;4.200;2023-02-28T00:39:59;12.80;;;7.20;;
24157;SDS011;12316;50.904;4.200;2023-02-28T00:42:25;15.40;;;7.43;;
24157;SDS011;12316;50.904;4.200;2023-02-28T00:44:51;11.98;;;7.30;;
24157;SDS011;12316;50.904;4.200;2023-02-28T00:47:17;12.50;;;7.63;;
24157;SDS011;12316;50.904;4.200;2023-02-28T00:49:42;13.55;;;7.90;;
24157;SDS011;12316;50.904;4.200;2023-02-28T00:52:08;10.23;;;7.75;;
24157;SDS011;12316;50.904;4.200;2023-02-28T00:54:34;13.10;;;7.90;;
24157;SDS011;12316;50.904;4.200;2023-02-28T00:56:59;10.77;;;7.22;;
24157;SDS011;12316;50.904;4.200;2023-02-28T00:59:25;11.48;;;7.90;;
24157;SDS011;12316;50.904;4.200;2023-02-28T01:01:51;10.90;;;7.55;;
24157;SDS011;12316;50.904;4.200;2023-02-28T01:04:16;11.43;;;7.95;;
24157;SDS011;12316;50.904;4.200;2023-02-28T01:06:42;13.48;;;7.68;;
24157;SDS011;12316;50.904;4.200;2023-02-28T01:09:08;13.27;;;7.90;;
24157;SDS011;12316;50.904;4.200;2023-02-28T01:11:34;11.90;;;7.25;;
24157;SDS011;12316;50.904;4.200;2023-02-28T01:14:01;11.73;;;7.50;;
24157;SDS011;12316;50.904;4.200;2023-02-28T01:16:27;12.95;;;7.82;;
24157;SDS011;12316;50.904;4.200;2023-02-28T01:18:53;10.50;;;7.35;;
24157;SDS011;12316;50.904;4.200;2023-02-28T01:21:20;12.07;;;7.70;;
24157;SDS011;12316;50.904;4.200;2023-02-28T01:23:46;11.48;;;7.68;;
24157;SDS011;12316;50.904;4.200;2023-02-28T01:26:14;12.20;;;8.65;;
24157;SDS011;12316;50.904;4.200;2023-02-28T01:28:44;7.20;;;5.75;;
24157;SDS011;12316;50.904;4.200;2023-02-28T01:31:10;11.07;;;8.13;;
24157;SDS011;12316;50.904;4.200;2023-02-28T01:33:37;14.30;;;8.13;;
24157;SDS011;12316;50.904;4.200;2023-02-28T01:36:05;11.52;;;8.30;;
24157;SDS011;12316;50.904;4.200;2023-02-28T01:38:34;14.50;;;8.23;;
24157;SDS011;12316;50.904;4.200;2023-02-28T01:41:00;14.68;;;8.38;;
24157;SDS011;12316;50.904;4.200;2023-02-28T01:43:27;12.43;;;8.40;;
24157;SDS011;12316;50.904;4.200;2023-02-28T01:45:55;12.55;;;8.05;;
24157;SDS011;12316;50.904;4.200;2023-02-28T01:48:23;14.82;;;8.77;;
24157;SDS011;12316;50.904;4.200;2023-02-28T01:50:52;11.95;;;8.70;;
24157;SDS011;12316;50.904;4.200;2023-02-28T01:53:23;13.60;;;8.70;;
24157;SDS011;12316;50.904;4.200;2023-02-28T01:55:55;13.85;;;8.88;;
24157;SDS011;12316;50.904;4.200;2023-02-28T01:58:21;13.57;;;8.52;;
24157;SDS011;12316;50.904;4.200;2023-02-28T02:00:47;12.70;;;9.05;;
24157;SDS011;12316;50.904;4.200;2023-02-28T02:03:13;11.55;;;8.63;;
24157;SDS011;12316;50.904;4.200;2023-02-28T02:05:44;14.10;;;9.32;;
24157;SDS011;12316;50.904;4.200;2023-02-28T02:08:13;12.25;;;8.85;;
24157;SDS011;12316;50.904;4.200;2023-02-28T02:10:48;13.02;;;9.23;;
24157;SDS011;12316;50.904;4.200;2023-02-28T02:13:21;12.68;;;9.10;;
24157;SDS011;12316;50.904;4.200;2023-02-28T02:18:46;12.60;;;9.40;;
24157;SDS011;12316;50.904;4.200;2023-02-28T02:24:15;12.15;;;8.77;;
24157;SDS011;12316;50.904;4.200;2023-02-28T02:38:36;14.35;;;9.13;;
24157;SDS011;12316;50.904;4.200;2023-02-28T02:41:19;11.85;;;9.23;;
24157;SDS011;12316;50.904;4.200;2023-02-28T02:44:13;16.38;;;9.80;;
24157;SDS011;12316;50.904;4.200;2023-02-28T02:46:47;13.27;;;9.82;;
24157;SDS011;12316;50.904;4.200;2023-02-28T02:49:24;14.40;;;9.95;;
24157;SDS011;12316;50.904;4.200;2023-02-28T02:51:53;12.60;;;9.68;;
24157;SDS011;12316;50.904;4.200;2023-02-28T02:54:22;13.70;;;9.82;;
24157;SDS011;12316;50.904;4.200;2023-02-28T02:56:53;14.13;;;9.82;;
24157;SDS011;12316;50.904;4.200;2023-02-28T02:59:23;19.55;;;10.52;;
24157;SDS011;12316;50.904;4.200;2023-02-28T03:01:52;14.63;;;10.23;;
24157;SDS011;12316;50.904;4.200;2023-02-28T03:04:21;14.40;;;10.10;;
24157;SDS011;12316;50.904;4.200;2023-02-28T03:06:50;15.50;;;10.02;;
24157;SDS011;12316;50.904;4.200;2023-02-28T03:09:20;14.10;;;10.43;;
24157;SDS011;12316;50.904;4.200;2023-02-28T03:11:51;16.08;;;10.48;;
24157;SDS011;12316;50.904;4.200;2023-02-28T03:35:39;15.30;;;10.63;;
24157;SDS011;12316;50.904;4.200;2023-02-28T03:40:48;17.92;;;10.55;;
24157;SDS011;12316;50.904;4.200;2023-02-28T03:43:28;15.45;;;11.00;;
24157;SDS011;12316;50.904;4.200;2023-02-28T03:45:57;13.57;;;10.57;;
24157;SDS011;12316;50.904;4.200;2023-02-28T03:48:38;17.08;;;10.80;;
24157;SDS011;12316;50.904;4.200;2023-02-28T03:51:12;16.58;;;11.32;;
24157;SDS011;12316;50.904;4.200;2023-02-28T03:53:46;17.67;;;11.15;;
24157;SDS011;12316;50.904;4.200;2023-02-28T03:56:17;15.30;;;10.77;;
24157;SDS011;12316;50.904;4.200;2023-02-28T04:01:48;16.48;;;11.00;;
24157;SDS011;12316;50.904;4.200;2023-02-28T04:04:15;17.38;;;11.32;;
24157;SDS011;12316;50.904;4.200;2023-02-28T04:06:42;16.27;;;11.20;;
24157;SDS011;12316;50.904;4.200;2023-02-28T04:09:09;20.17;;;11.07;;
24157;SDS011;12316;50.904;4.200;2023-02-28T04:11:40;15.82;;;10.95;;
24157;SDS011;12316;50.904;4.200;2023-02-28T04:14:24;17.65;;;11.02;;
24157;SDS011;12316;50.904;4.200;2023-02-28T04:16:50;16.05;;;11.35;;
24157;SDS011;12316;50.904;4.200;2023-02-28T04:19:16;14.68;;;10.98;;
24157;SDS011;12316;50.904;4.200;2023-02-28T04:21:43;15.45;;;11.00;;
24157;SDS011;12316;50.904;4.200;2023-02-28T04:24:11;14.65;;;10.95;;
24157;SDS011;12316;50.904;4.200;2023-02-28T04:26:49;14.93;;;10.63;;
24157;SDS011;12316;50.904;4.200;2023-02-28T04:29:23;16.30;;;10.43;;
24157;SDS011;12316;50.904;4.200;2023-02-28T04:31:52;13.85;;;10.38;;
24157;SDS011;12316;50.904;4.200;2023-02-28T04:34:19;15.55;;;10.77;;
24157;SDS011;12316;50.904;4.200;2023-02-28T04:36:46;14.48;;;10.40;;
24157;SDS011;12316;50.904;4.200;2023-02-28T04:39:14;14.07;;;9.90;;
24157;SDS011;12316;50.904;4.200;2023-02-28T04:41:40;14.88;;;10.65;;
24157;SDS011;12316;50.904;4.200;2023-02-28T04:44:06;17.25;;;10.95;;
24157;SDS011;12316;50.904;4.200;2023-02-28T04:46:31;16.88;;;10.95;;
24157;SDS011;12316;50.904;4.200;2023-02-28T04:48:57;16.75;;;11.23;;
24157;SDS011;12316;50.904;4.200;2023-02-28T04:51:23;14.15;;;11.02;;
24157;SDS011;12316;50.904;4.200;2023-02-28T04:53:50;16.05;;;11.38;;
24157;SDS011;12316;50.904;4.200;2023-02-28T04:56:16;18.30;;;11.50;;
24157;SDS011;12316;50.904;4.200;2023-02-28T04:58:43;14.98;;;11.20;;
24157;SDS011;12316;50.904;4.200;2023-02-28T05:01:20;16.30;;;11.52;;
24157;SDS011;12316;50.904;4.200;2023-02-28T05:03:51;14.82;;;11.23;;
24157;SDS011;12316;50.904;4.200;2023-02-28T05:06:18;16.27;;;10.85;;
24157;SDS011;12316;50.904;4.200;2023-02-28T05:08:45;15.80;;;10.77;;
24157;SDS011;12316;50.904;4.200;2023-02-28T05:13:54;16.33;;;11.50;;
24157;SDS011;12316;50.904;4.200;2023-02-28T05:16:20;19.95;;;11.15;;
24157;SDS011;12316;50.904;4.200;2023-02-28T05:18:46;15.38;;;10.57;;
24157;SDS011;12316;50.904;4.200;2023-02-28T05:21:28;15.25;;;10.65;;
24157;SDS011;12316;50.904;4.200;2023-02-28T05:23:57;15.38;;;10.70;;
24157;SDS011;12316;50.904;4.200;2023-02-28T05:26:25;14.35;;;10.35;;
24157;SDS011;12316;50.904;4.200;2023-02-28T05:28:51;15.80;;;10.75;;
24157;SDS011;12316;50.904;4.200;2023-02-28T05:31:17;17.15;;;10.60;;
24157;SDS011;12316;50.904;4.200;2023-02-28T05:33:43;14.90;;;11.10;;
24157;SDS011;12316;50.904;4.200;2023-02-28T05:36:09;15.27;;;10.52;;
24157;SDS011;12316;50.904;4.200;2023-02-28T05:38:34;14.40;;;10.52;;
24157;SDS011;12316;50.904;4.200;2023-02-28T05:41:00;15.45;;;10.35;;
24157;SDS011;12316;50.904;4.200;2023-02-28T05:43:29;15.27;;;10.32;;
24157;SDS011;12316;50.904;4.200;2023-02-28T05:45:55;14.18;;;9.98;;
24157;SDS011;12316;50.904;4.200;2023-02-28T05:48:20;12.80;;;10.20;;
24157;SDS011;12316;50.904;4.200;2023-02-28T05:50:46;14.77;;;10.35;;
24157;SDS011;12316;50.904;4.200;2023-02-28T05:53:11;14.88;;;10.55;;
24157;SDS011;12316;50.904;4.200;2023-02-28T05:55:37;14.73;;;9.82;;
24157;SDS011;12316;50.904;4.200;2023-02-28T05:58:02;15.40;;;9.98;;
24157;SDS011;12316;50.904;4.200;2023-02-28T06:00:28;13.65;;;10.32;;
24157;SDS011;12316;50.904;4.200;2023-02-28T06:02:54;16.85;;;10.52;;
24157;SDS011;12316;50.904;4.200;2023-02-28T06:05:23;14.55;;;9.93;;
24157;SDS011;12316;50.904;4.200;2023-02-28T06:07:48;14.00;;;10.18;;
24157;SDS011;12316;50.904;4.200;2023-02-28T06:10:14;16.13;;;10.48;;
24157;SDS011;12316;50.904;4.200;2023-02-28T06:12:40;13.73;;;10.40;;
24157;SDS011;12316;50.904;4.200;2023-02-28T06:15:07;15.63;;;9.93;;
24157;SDS011;12316;50.904;4.200;2023-02-28T06:17:36;18.25;;;11.38;;
24157;SDS011;12316;50.904;4.200;2023-02-28T06:20:02;14.73;;;10.50;;
24157;SDS011;12316;50.904;4.200;2023-02-28T06:22:28;15.82;;;10.40;;
24157;SDS011;12316;50.904;4.200;2023-02-28T06:24:53;13.02;;;10.02;;
24157;SDS011;12316;50.904;4.200;2023-02-28T06:27:19;15.70;;;10.23;;
24157;SDS011;12316;50.904;4.200;2023-02-28T06:29:45;13.70;;;10.43;;
24157;SDS011;12316;50.904;4.200;2023-02-28T06:32:11;14.32;;;10.18;;
24157;SDS011;12316;50.904;4.200;2023-02-28T06:34:36;14.93;;;10.15;;
24157;SDS011;12316;50.904;4.200;2023-02-28T06:37:02;14.57;;;10.23;;
24157;SDS011;12316;50.904;4.200;2023-02-28T06:39:31;17.15;;;10.35;;
24157;SDS011;12316;50.904;4.200;2023-02-28T06:41:56;15.70;;;10.82;;
24157;SDS011;12316;50.904;4.200;2023-02-28T06:44:22;17.40;;;10.70;;
24157;SDS011;12316;50.904;4.200;2023-02-28T06:46:48;16.27;;;10.18;;
24157;SDS011;12316;50.904;4.200;2023-02-28T06:49:14;21.88;;;10.10;;
24157;SDS011;12316;50.904;4.200;2023-02-28T06:51:41;15.93;;;10.38;;
24157;SDS011;12316;50.904;4.200;2023-02-28T06:54:11;15.07;;;10.00;;
24157;SDS011;12316;50.904;4.200;2023-02-28T06:56:37;14.98;;;9.57;;
24157;SDS011;12316;50.904;4.200;2023-02-28T06:59:04;14.20;;;9.98;;
24157;SDS011;12316;50.904;4.200;2023-02-28T07:01:30;13.75;;;9.80;;
24157;SDS011;12316;50.904;4.200;2023-02-28T07:03:59;15.57;;;9.95;;
24157;SDS011;12316;50.904;4.200;2023-02-28T07:06:25;13.75;;;10.02;;
24157;SDS011;12316;50.904;4.200;2023-02-28T07:08:51;13.07;;;10.20;;
24157;SDS011;12316;50.904;4.200;2023-02-28T07:11:19;15.35;;;10.18;;
24157;SDS011;12316;50.904;4.200;2023-02-28T07:13:49;17.40;;;10.00;;
24157;SDS011;12316;50.904;4.200;2023-02-28T07:16:15;14.80;;;10.00;;
24157;SDS011;12316;50.904;4.200;2023-02-28T07:18:41;13.98;;;9.98;;
24157;SDS011;12316;50.904;4.200;2023-02-28T07:21:07;16.85;;;9.60;;
24157;SDS011;12316;50.904;4.200;2023-02-28T07:23:35;17.00;;;9.52;;
24157;SDS011;12316;50.904;4.200;2023-02-28T07:26:02;16.95;;;9.93;;
24157;SDS011;12316;50.904;4.200;2023-02-28T07:28:28;12.55;;;9.20;;
24157;SDS011;12316;50.904;4.200;2023-02-28T07:30:54;12.85;;;9.23;;
24157;SDS011;12316;50.904;4.200;2023-02-28T07:33:20;14.40;;;9.68;;
24157;SDS011;12316;50.904;4.200;2023-02-28T07:35:45;13.35;;;9.27;;
24157;SDS011;12316;50.904;4.200;2023-02-28T07:38:11;13.45;;;9.52;;
24157;SDS011;12316;50.904;4.200;2023-02-28T07:40:38;13.35;;;8.77;;
24157;SDS011;12316;50.904;4.200;2023-02-28T07:43:04;12.80;;;9.32;;
24157;SDS011;12316;50.904;4.200;2023-02-28T07:45:30;12.68;;;9.05;;
24157;SDS011;12316;50.904;4.200;2023-02-28T07:47:59;14.20;;;8.48;;
24157;SDS011;12316;50.904;4.200;2023-02-28T07:50:25;16.00;;;9.35;;
24157;SDS011;12316;50.904;4.200;2023-02-28T07:52:54;14.90;;;8.88;;
24157;SDS011;12316;50.904;4.200;2023-02-28T07:55:19;13.32;;;8.77;;
24157;SDS011;12316;50.904;4.200;2023-02-28T07:57:45;11.60;;;8.57;;
24157;SDS011;12316;50.904;4.200;2023-02-28T08:00:10;12.13;;;8.65;;
24157;SDS011;12316;50.904;4.200;2023-02-28T08:02:38;11.00;;;8.63;;
24157;SDS011;12316;50.904;4.200;2023-02-28T08:05:04;11.07;;;8.27;;
24157;SDS011;12316;50.904;4.200;2023-02-28T08:07:31;15.15;;;8.30;;
24157;SDS011;12316;50.904;4.200;2023-02-28T08:09:58;12.13;;;7.28;;
24157;SDS011;12316;50.904;4.200;2023-02-28T08:12:24;10.02;;;7.95;;
24157;SDS011;12316;50.904;4.200;2023-02-28T08:14:50;12.25;;;7.35;;
24157;SDS011;12316;50.904;4.200;2023-02-28T08:17:15;10.88;;;7.70;;
24157;SDS011;12316;50.904;4.200;2023-02-28T08:19:41;11.02;;;7.40;;
24157;SDS011;12316;50.904;4.200;2023-02-28T08:22:06;10.63;;;6.95;;
24157;SDS011;12316;50.904;4.200;2023-02-28T08:24:32;22.73;;;8.25;;
24157;SDS011;12316;50.904;4.200;2023-02-28T08:26:58;16.05;;;6.97;;
24157;SDS011;12316;50.904;4.200;2023-02-28T08:29:24;11.95;;;7.22;;
24157;SDS011;12316;50.904;4.200;2023-02-28T08:31:50;19.63;;;7.40;;
24157;SDS011;12316;50.904;4.200;2023-02-28T08:34:16;10.23;;;6.40;;
24157;SDS011;12316;50.904;4.200;2023-02-28T08:36:42;11.38;;;6.13;;
24157;SDS011;12316;50.904;4.200;2023-02-28T08:39:10;8.10;;;6.15;;
24157;SDS011;12316;50.904;4.200;2023-02-28T08:41:36;9.15;;;6.00;;
24157;SDS011;12316;50.904;4.200;2023-02-28T08:44:02;8.88;;;5.55;;
24157;SDS011;12316;50.904;4.200;2023-02-28T08:46:28;6.45;;;5.10;;
24157;SDS011;12316;50.904;4.200;2023-02-28T08:48:54;8.20;;;4.78;;
24157;SDS011;12316;50.904;4.200;2023-02-28T08:51:24;9.68;;;4.65;;
24157;SDS011;12316;50.904;4.200;2023-02-28T08:53:53;5.75;;;4.13;;
24157;SDS011;12316;50.904;4.200;2023-02-28T08:56:24;4.80;;;3.67;;
24157;SDS011;12316;50.904;4.200;2023-02-28T08:58:51;6.50;;;4.03;;
24157;SDS011;12316;50.904;4.200;2023-02-28T09:01:26;6.63;;;4.38;;
24157;SDS011;12316;50.904;4.200;2023-02-28T09:03:54;5.95;;;3.78;;
24157;SDS011;12316;50.904;4.200;2023-02-28T09:06:21;5.55;;;3.70;;
24157;SDS011;12316;50.904;4.200;2023-02-28T09:08:48;6.85;;;4.13;;
24157;SDS011;12316;50.904;4.200;2023-02-28T09:11:15;7.57;;;3.83;;
24157;SDS011;12316;50.904;4.200;2023-02-28T09:13:40;6.70;;;3.97;;
24157;SDS011;12316;50.904;4.200;2023-02-28T09:16:07;4.70;;;3.67;;
24157;SDS011;12316;50.904;4.200;2023-02-28T09:18:35;8.57;;;3.53;;
24157;SDS011;12316;50.904;4.200;2023-02-28T09:21:06;4.57;;;3.40;;
24157;SDS011;12316;50.904;4.200;2023-02-28T09:23:33;7.25;;;3.58;;
24157;SDS011;12316;50.904;4.200;2023-02-28T09:25:59;5.25;;;2.90;;
24157;SDS011;12316;50.904;4.200;2023-02-28T09:28:25;7.15;;;3.00;;
24157;SDS011;12316;50.904;4.200;2023-02-28T09:30:52;4.20;;;3.17;;
24157;SDS011;12316;50.904;4.200;2023-02-28T09:33:22;6.20;;;2.97;;
24157;SDS011;12316;50.904;4.200;2023-02-28T09:35:48;3.58;;;2.60;;
24157;SDS011;12316;50.904;4.200;2023-02-28T09:38:14;3.92;;;2.53;;
24157;SDS011;12316;50.904;4.200;2023-02-28T09:41:02;4.35;;;3.05;;
24157;SDS011;12316;50.904;4.200;2023-02-28T09:43:47;4.78;;;3.05;;
24157;SDS011;12316;50.904;4.200;2023-02-28T09:46:27;4.20;;;3.00;;
24157;SDS011;12316;50.904;4.200;2023-02-28T09:49:12;5.10;;;2.80;;
24157;SDS011;12316;50.904;4.200;2023-02-28T09:54:10;5.60;;;2.63;;
24157;SDS011;12316;50.904;4.200;2023-02-28T09:56:44;3.97;;;2.80;;
24157;SDS011;12316;50.904;4.200;2023-02-28T09:59:20;4.85;;;3.13;;
24157;SDS011;12316;50.904;4.200;2023-02-28T10:04:42;7.68;;;2.95;;
24157;SDS011;12316;50.904;4.200;2023-02-28T10:09:58;10.32;;;3.00;;
24157;SDS011;12316;50.904;4.200;2023-02-28T10:12:27;6.35;;;2.65;;
24157;SDS011;12316;50.904;4.200;2023-02-28T10:14:54;5.63;;;2.65;;
24157;SDS011;12316;50.904;4.200;2023-02-28T10:17:28;3.17;;;2.40;;
24157;SDS011;12316;50.904;4.200;2023-02-28T10:20:05;2.70;;;2.20;;
24157;SDS011;12316;50.904;4.200;2023-02-28T10:22:44;3.28;;;2.25;;
24157;SDS011;12316;50.904;4.200;2023-02-28T10:25:18;4.88;;;2.65;;
24157;SDS011;12316;50.904;4.200;2023-02-28T10:27:46;2.00;;;1.65;;
24157;SDS011;12316;50.904;4.200;2023-02-28T10:30:12;4.57;;;2.50;;
24157;SDS011;12316;50.904;4.200;2023-02-28T10:32:39;4.80;;;2.72;;
24157;SDS011;12316;50.904;4.200;2023-02-28T10:37:50;3.17;;;2.70;;
24157;SDS011;12316;50.904;4.200;2023-02-28T10:45:24;4.18;;;2.97;;
24157;SDS011;12316;50.904;4.200;2023-02-28T10:53:45;3.17;;;2.38;;
24157;SDS011;12316;50.904;4.200;2023-02-28T10:56:34;4.00;;;2.60;;
24157;SDS011;12316;50.904;4.200;2023-02-28T11:04:00;3.17;;;2.33;;
24157;SDS011;12316;50.904;4.200;2023-02-28T11:06:35;4.95;;;2.47;;
24157;SDS011;12316;50.904;4.200;2023-02-28T11:09:06;3.03;;;2.20;;
24157;SDS011;12316;50.904;4.200;2023-02-28T11:11:45;4.22;;;2.45;;
24157;SDS011;12316;50.904;4.200;2023-02-28T11:14:20;7.10;;;2.60;;
24157;SDS011;12316;50.904;4.200;2023-02-28T11:16:52;2.90;;;2.20;;
24157;SDS011;12316;50.904;4.200;2023-02-28T11:19:20;5.55;;;2.80;;
24157;SDS011;12316;50.904;4.200;2023-02-28T11:21:58;6.40;;;2.90;;
24157;SDS011;12316;50.904;4.200;2023-02-28T11:24:30;3.35;;;2.33;;
24157;SDS011;12316;50.904;4.200;2023-02-28T11:27:00;4.22;;;2.40;;
24157;SDS011;12316;50.904;4.200;2023-02-28T11:29:27;3.60;;;2.50;;
24157;SDS011;12316;50.904;4.200;2023-02-28T11:34:43;3.58;;;2.60;;
24157;SDS011;12316;50.904;4.200;2023-02-28T11:37:18;2.80;;;2.40;;
24157;SDS011;12316;50.904;4.200;2023-02-28T11:39:44;3.60;;;2.65;;
24157;SDS011;12316;50.904;4.200;2023-02-28T11:50:27;5.25;;;2.50;;
24157;SDS011;12316;50.904;4.200;2023-02-28T11:53:00;4.65;;;3.20;;
24157;SDS011;12316;50.904;4.200;2023-02-28T11:55:39;8.52;;;5.43;;
24157;SDS011;12316;50.904;4.200;2023-02-28T11:58:21;8.60;;;4.53;;
24157;SDS011;12316;50.904;4.200;2023-02-28T12:00:57;3.10;;;2.60;;
24157;SDS011;12316;50.904;4.200;2023-02-28T12:12:19;3.28;;;2.22;;
24157;SDS011;12316;50.904;4.200;2023-02-28T12:14:54;3.30;;;2.80;;
24157;SDS011;12316;50.904;4.200;2023-02-28T12:25:55;5.38;;;2.50;;
24157;SDS011;12316;50.904;4.200;2023-02-28T12:28:27;3.42;;;2.80;;
24157;SDS011;12316;50.904;4.200;2023-02-28T12:33:36;5.55;;;2.85;;
24157;SDS011;12316;50.904;4.200;2023-02-28T12:36:10;3.63;;;2.90;;
24157;SDS011;12316;50.904;4.200;2023-02-28T12:38:47;4.15;;;2.67;;
24157;SDS011;12316;50.904;4.200;2023-02-28T12:41:31;4.95;;;2.80;;
24157;SDS011;12316;50.904;4.200;2023-02-28T12:44:11;4.10;;;2.70;;
24157;SDS011;12316;50.904;4.200;2023-02-28T12:46:43;3.03;;;2.67;;
24157;SDS011;12316;50.904;4.200;2023-02-28T12:49:21;5.43;;;2.90;;
24157;SDS011;12316;50.904;4.200;2023-02-28T12:51:53;4.38;;;2.83;;
24157;SDS011;12316;50.904;4.200;2023-02-28T12:57:01;4.15;;;2.90;;
24157;SDS011;12316;50.904;4.200;2023-02-28T12:59:49;4.65;;;2.90;;
24157;SDS011;12316;50.904;4.200;2023-02-28T13:02:26;4.68;;;2.70;;
24157;SDS011;12316;50.904;4.200;2023-02-28T13:05:32;4.10;;;2.88;;
24157;SDS011;12316;50.904;4.200;2023-02-28T13:08:33;2.85;;;2.60;;
24157;SDS011;12316;50.904;4.200;2023-02-28T13:11:25;3.67;;;2.80;;
24157;SDS011;12316;50.904;4.200;2023-02-28T13:14:02;4.07;;;2.30;;
24157;SDS011;12316;50.904;4.200;2023-02-28T13:21:49;3.78;;;2.70;;
24157;SDS011;12316;50.904;4.200;2023-02-28T13:27:23;4.60;;;2.75;;
24157;SDS011;12316;50.904;4.200;2023-02-28T13:29:58;3.17;;;2.35;;
24157;SDS011;12316;50.904;4.200;2023-02-28T13:47:29;4.57;;;3.10;;
24157;SDS011;12316;50.904;4.200;2023-02-28T13:50:40;3.17;;;2.70;;
24157;SDS011;12316;50.904;4.200;2023-02-28T13:53:17;3.30;;;2.80;;
24157;SDS011;12316;50.904;4.200;2023-02-28T14:06:56;6.63;;;3.00;;
24157;SDS011;12316;50.904;4.200;2023-02-28T14:09:34;3.60;;;2.85;;
24157;SDS011;12316;50.904;4.200;2023-02-28T14:16:06;4.90;;;2.83;;
24157;SDS011;12316;50.904;4.200;2023-02-28T14:18:17;3.78;;;2.90;;
24157;SDS011;12316;50.904;4.200;2023-02-28T14:32:33;4.00;;;3.00;;
24157;SDS011;12316;50.904;4.200;2023-02-28T14:38:27;3.85;;;2.92;;
24157;SDS011;12316;50.904;4.200;2023-02-28T14:41:00;3.50;;;3.05;;
24157;SDS011;12316;50.904;4.200;2023-02-28T14:43:31;5.32;;;3.00;;
24157;SDS011;12316;50.904;4.200;2023-02-28T14:45:58;4.40;;;2.80;;
24157;SDS011;12316;50.904;4.200;2023-02-28T14:48:26;3.85;;;2.83;;
24157;SDS011;12316;50.904;4.200;2023-02-28T14:50:54;7.00;;;2.88;;
24157;SDS011;12316;50.904;4.200;2023-02-28T14:53:26;3.30;;;3.00;;
24157;SDS011;12316;50.904;4.200;2023-02-28T14:55:54;3.85;;;3.22;;
24157;SDS011;12316;50.904;4.200;2023-02-28T14:58:30;5.10;;;3.30;;
24157;SDS011;12316;50.904;4.200;2023-02-28T15:01:02;3.45;;;2.92;;
24157;SDS011;12316;50.904;4.200;2023-02-28T15:05:59;4.50;;;3.35;;
24157;SDS011;12316;50.904;4.200;2023-02-28T15:08:27;5.25;;;3.17;;
24157;SDS011;12316;50.904;4.200;2023-02-28T15:10:58;5.68;;;3.55;;
24157;SDS011;12316;50.904;4.200;2023-02-28T15:13:30;5.13;;;3.40;;
24157;SDS011;12316;50.904;4.200;2023-02-28T15:16:20;5.70;;;3.40;;
24157;SDS011;12316;50.904;4.200;2023-02-28T15:21:18;5.95;;;3.50;;
24157;SDS011;12316;50.904;4.200;2023-02-28T15:26:22;6.18;;;3.78;;
24157;SDS011;12316;50.904;4.200;2023-02-28T15:29:04;5.72;;;4.00;;
24157;SDS011;12316;50.904;4.200;2023-02-28T15:31:33;4.78;;;3.97;;
24157;SDS011;12316;50.904;4.200;2023-02-28T15:34:05;9.25;;;3.75;;
24157;SDS011;12316;50.904;4.200;2023-02-28T15:36:32;4.25;;;3.20;;
24157;SDS011;12316;50.904;4.200;2023-02-28T15:39:02;4.95;;;3.45;;
24157;SDS011;12316;50.904;4.200;2023-02-28T15:41:43;4.45;;;3.70;;
24157;SDS011;12316;50.904;4.200;2023-02-28T15:46:53;5.90;;;3.53;;
24157;SDS011;12316;50.904;4.200;2023-02-28T15:49:23;4.32;;;3.03;;
24157;SDS011;12316;50.904;4.200;2023-02-28T15:51:50;6.07;;;3.13;;
24157;SDS011;12316;50.904;4.200;2023-02-28T15:54:24;4.88;;;3.40;;
24157;SDS011;12316;50.904;4.200;2023-02-28T15:56:57;5.25;;;3.30;;
24157;SDS011;12316;50.904;4.200;2023-02-28T15:59:28;3.45;;;2.97;;
24157;SDS011;12316;50.904;4.200;2023-02-28T16:07:56;5.30;;;3.40;;
24157;SDS011;12316;50.904;4.200;2023-02-28T16:10:24;5.65;;;3.65;;
24157;SDS011;12316;50.904;4.200;2023-02-28T16:12:53;20.70;;;11.77;;
24157;SDS011;12316;50.904;4.200;2023-02-28T16:15:22;10.00;;;7.18;;
24157;SDS011;12316;50.904;4.200;2023-02-28T16:17:51;6.63;;;4.05;;
24157;SDS011;12316;50.904;4.200;2023-02-28T16:20:20;4.55;;;3.10;;
24157;SDS011;12316;50.904;4.200;2023-02-28T16:25:18;9.93;;;4.00;;
24157;SDS011;12316;50.904;4.200;2023-02-28T16:27:47;6.85;;;3.97;;
24157;SDS011;12316;50.904;4.200;2023-02-28T16:30:16;5.18;;;4.18;;
24157;SDS011;12316;50.904;4.200;2023-02-28T16:32:48;5.47;;;3.50;;
24157;SDS011;12316;50.904;4.200;2023-02-28T16:35:15;5.32;;;3.50;;
24157;SDS011;12316;50.904;4.200;2023-02-28T16:37:41;7.35;;;3.65;;
24157;SDS011;12316;50.904;4.200;2023-02-28T16:40:09;4.03;;;3.35;;
24157;SDS011;12316;50.904;4.200;2023-02-28T16:42:40;6.30;;;3.22;;
24157;SDS011;12316;50.904;4.200;2023-02-28T16:45:06;6.93;;;3.50;;
24157;SDS011;12316;50.904;4.200;2023-02-28T16:47:47;5.13;;;3.47;;
24157;SDS011;12316;50.904;4.200;2023-02-28T16:50:23;6.63;;;3.40;;
24157;SDS011;12316;50.904;4.200;2023-02-28T16:52:53;6.45;;;3.60;;
24157;SDS011;12316;50.904;4.200;2023-02-28T16:55:20;4.28;;;3.45;;
24157;SDS011;12316;50.904;4.200;2023-02-28T16:57:49;5.50;;;3.72;;
24157;SDS011;12316;50.904;4.200;2023-02-28T17:00:21;4.13;;;3.30;;
24157;SDS011;12316;50.904;4.200;2023-02-28T17:02:47;5.32;;;3.83;;
24157;SDS011;12316;50.904;4.200;2023-02-28T17:05:12;6.72;;;3.50;;
24157;SDS011;12316;50.904;4.200;2023-02-28T17:07:39;5.60;;;4.00;;
24157;SDS011;12316;50.904;4.200;2023-02-28T17:10:25;5.20;;;3.72;;
24157;SDS011;12316;50.904;4.200;2023-02-28T17:12:51;7.45;;;4.47;;
24157;SDS011;12316;50.904;4.200;2023-02-28T17:15:18;4.78;;;4.35;;
24157;SDS011;12316;50.904;4.200;2023-02-28T17:17:45;67.78;;;35.95;;
24157;SDS011;12316;50.904;4.200;2023-02-28T17:20:13;15.05;;;9.98;;
24157;SDS011;12316;50.904;4.200;2023-02-28T17:22:40;8.18;;;5.45;;
24157;SDS011;12316;50.904;4.200;2023-02-28T17:25:05;9.35;;;7.10;;
24157;SDS011;12316;50.904;4.200;2023-02-28T17:27:32;6.90;;;5.28;;
24157;SDS011;12316;50.904;4.200;2023-02-28T17:29:58;30.85;;;18.98;;
24157;SDS011;12316;50.904;4.200;2023-02-28T17:32:24;15.25;;;10.05;;
24157;SDS011;12316;50.904;4.200;2023-02-28T17:34:50;30.17;;;19.38;;
24157;SDS011;12316;50.904;4.200;2023-02-28T17:37:16;10.60;;;8.15;;
24157;SDS011;12316;50.904;4.200;2023-02-28T17:39:42;5.88;;;4.72;;
24157;SDS011;12316;50.904;4.200;2023-02-28T17:42:07;4.88;;;3.67;;
24157;SDS011;12316;50.904;4.200;2023-02-28T17:44:33;6.30;;;3.92;;
24157;SDS011;12316;50.904;4.200;2023-02-28T17:46:59;5.70;;;4.05;;
24157;SDS011;12316;50.904;4.200;2023-02-28T17:49:25;5.15;;;3.83;;
24157;SDS011;12316;50.904;4.200;2023-02-28T17:51:50;5.68;;;4.05;;